createdAt,value
2018-08-14T00:01:07.707Z,10.70
2018-08-14T00:05:16.033Z,10.33
2018-08-14T00:09:24.324Z,12.37
2018-08-14T00:13:32.707Z,10.60
2018-08-14T00:17:41.313Z,11.40
2018-08-14T00:21:49.694Z,11.83
2018-08-14T00:25:58.069Z,11.30
2018-08-14T00:30:09.908Z,11.17
2018-08-14T00:34:18.245Z,15.63
2018-08-14T00:38:26.525Z,19.23
2018-08-14T00:42:34.846Z,14.93
2018-08-14T00:46:43.238Z,14.50
2018-08-14T00:50:51.606Z,13.17
2018-08-14T00:54:59.913Z,16.67
2018-08-14T00:59:08.419Z,15.63
2018-08-14T01:03:16.736Z,14.37
2018-08-14T01:07:25.039Z,13.73
2018-08-14T01:11:33.346Z,17.00
2018-08-14T01:15:41.758Z,16.43
2018-08-14T01:19:50.107Z,15.50
2018-08-14T01:23:58.410Z,14.70
2018-08-14T01:28:06.852Z,18.03
2018-08-14T01:32:15.206Z,20.90
2018-08-14T01:36:23.527Z,19.67
2018-08-14T01:40:31.802Z,21.70
2018-08-14T01:44:40.152Z,22.50
2018-08-14T01:48:48.488Z,25.93
2018-08-14T01:52:56.765Z,24.17
2018-08-14T01:57:05.095Z,31.30
2018-08-14T02:01:13.389Z,27.83
2018-08-14T02:05:21.730Z,39.23
2018-08-14T02:09:30.034Z,27.90
2018-08-14T02:13:38.408Z,27.50
2018-08-14T02:17:46.691Z,32.03
2018-08-14T02:21:55.034Z,31.67
2018-08-14T02:26:03.350Z,29.27
2018-08-14T02:30:11.682Z,28.90
2018-08-14T02:34:20.012Z,30.40
2018-08-14T02:38:28.332Z,29.27
2018-08-14T02:42:36.654Z,38.60
2018-08-14T02:46:44.987Z,35.33
2018-08-14T02:50:53.296Z,29.30
2018-08-14T02:55:01.654Z,37.77
2018-08-14T02:59:10.001Z,33.67
2018-08-14T03:03:18.351Z,40.60
2018-08-14T03:07:26.618Z,35.47
2018-08-14T03:11:34.934Z,40.80
2018-08-14T03:15:43.289Z,39.33
2018-08-14T03:19:51.615Z,35.40
2018-08-14T03:24:00.364Z,33.10
2018-08-14T03:28:08.672Z,33.03
2018-08-14T03:32:17.235Z,39.15
2018-08-14T03:36:25.718Z,30.00
2018-08-14T03:40:34.048Z,39.97
2018-08-14T03:44:42.358Z,34.47
2018-08-14T03:48:50.646Z,32.27
2018-08-14T03:52:58.931Z,32.53
2018-08-14T03:57:07.344Z,42.77
2018-08-14T04:01:15.627Z,32.80
2018-08-14T04:05:23.919Z,36.20
2018-08-14T04:09:32.370Z,36.23
2018-08-14T04:13:40.687Z,35.90
2018-08-14T04:17:52.782Z,34.70
2018-08-14T04:22:01.106Z,37.13
2018-08-14T04:26:09.437Z,32.97
2018-08-14T04:30:17.868Z,44.17
2018-08-14T04:34:26.247Z,39.55
2018-08-14T04:38:34.313Z,39.27
2018-08-14T04:42:43.275Z,44.90
2018-08-14T04:46:51.555Z,38.93
2018-08-14T04:50:59.849Z,42.07
2018-08-14T04:55:09.647Z,37.15
2018-08-14T04:59:17.927Z,38.83
2018-08-14T05:03:26.263Z,32.57
2018-08-14T05:07:34.581Z,34.33
2018-08-14T05:11:43.322Z,36.03
2018-08-14T05:15:51.671Z,42.40
2018-08-14T05:19:59.982Z,41.13
2018-08-14T05:24:08.287Z,36.20
2018-08-14T05:28:16.638Z,35.77
2018-08-14T05:32:24.921Z,28.33
2018-08-14T05:36:33.244Z,30.83
2018-08-14T05:40:41.539Z,25.93
2018-08-14T05:44:49.883Z,31.80
2018-08-14T05:48:58.212Z,27.93
2018-08-14T05:53:06.602Z,27.67
2018-08-14T05:57:14.832Z,28.00
2018-08-14T06:01:23.155Z,31.03
2018-08-14T06:05:31.485Z,32.33
2018-08-14T06:09:39.781Z,31.10
2018-08-14T06:13:48.112Z,33.60
2018-08-14T06:17:56.447Z,32.97
2018-08-14T06:22:04.774Z,31.63
2018-08-14T06:26:13.101Z,42.17
2018-08-14T06:30:21.431Z,35.57
2018-08-14T06:34:29.893Z,40.53
2018-08-14T06:38:38.175Z,36.13
2018-08-14T06:42:46.509Z,41.50
2018-08-14T06:46:54.873Z,37.70
2018-08-14T06:51:03.191Z,30.67
2018-08-14T06:55:11.706Z,44.20
2018-08-14T06:59:19.998Z,38.50
2018-08-14T07:03:28.332Z,33.77
2018-08-14T07:07:36.653Z,45.23
2018-08-14T07:11:44.986Z,41.60
2018-08-14T07:15:53.306Z,41.00
2018-08-14T07:20:01.672Z,36.37
2018-08-14T07:24:10.110Z,37.80
2018-08-14T07:28:18.481Z,39.00
2018-08-14T07:32:26.825Z,27.17
2018-08-14T07:36:35.179Z,29.07
2018-08-14T07:40:43.487Z,26.50
2018-08-14T07:44:51.770Z,26.20
2018-08-14T07:49:00.013Z,32.80
2018-08-14T07:53:08.380Z,23.90
2018-08-14T07:57:16.433Z,26.37
2018-08-14T08:01:24.770Z,29.30
2018-08-14T08:05:33.063Z,26.47
2018-08-14T08:09:41.406Z,24.23
2018-08-14T08:13:49.764Z,20.83
2018-08-14T08:17:58.516Z,18.83
2018-08-14T08:22:06.874Z,18.43
2018-08-14T08:26:15.176Z,11.87
2018-08-14T08:30:23.519Z,7.70
2018-08-14T08:34:31.845Z,8.57
2018-08-14T08:38:40.185Z,12.03
2018-08-14T08:42:48.559Z,10.47
2018-08-14T08:46:56.947Z,6.40
2018-08-14T08:51:05.065Z,8.80
2018-08-14T08:55:17.385Z,9.83
2018-08-14T08:59:25.713Z,4.40
2018-08-14T09:03:34.065Z,9.33
2018-08-14T09:07:42.487Z,6.73
2018-08-14T09:11:50.782Z,8.97
2018-08-14T09:15:59.149Z,10.03
2018-08-14T09:20:08.886Z,11.13
2018-08-14T09:24:17.228Z,7.60
2018-08-14T09:28:25.546Z,7.07
2018-08-14T09:32:33.915Z,9.20
2018-08-14T09:36:42.383Z,6.80
2018-08-14T09:40:50.938Z,5.60
2018-08-14T09:44:59.505Z,14.50
2018-08-14T09:49:07.970Z,7.23
2018-08-14T09:53:16.366Z,8.27
2018-08-14T09:57:24.678Z,5.40
2018-08-14T10:01:39.820Z,5.57
2018-08-14T10:05:49.144Z,7.50
2018-08-14T10:09:57.429Z,4.93
2018-08-14T10:14:05.735Z,3.27
2018-08-14T10:18:19.286Z,8.90
2018-08-14T10:22:27.578Z,5.43
2018-08-14T10:26:35.999Z,4.00
2018-08-14T10:30:44.406Z,3.83
2018-08-14T10:34:52.754Z,4.60
2018-08-14T10:39:01.371Z,5.50
2018-08-14T10:43:09.786Z,3.50
2018-08-14T10:47:18.180Z,7.87
2018-08-14T10:51:26.557Z,7.83
2018-08-14T10:55:34.877Z,7.40
2018-08-14T10:59:43.215Z,5.30
2018-08-14T11:03:51.481Z,7.90
2018-08-14T11:07:59.830Z,6.03
2018-08-14T11:12:12.541Z,7.70
2018-08-14T11:16:20.874Z,5.10
2018-08-14T11:20:29.243Z,5.00
2018-08-14T11:24:37.693Z,6.50
2018-08-14T11:28:46.122Z,4.77
2018-08-14T11:32:54.895Z,4.90
2018-08-14T11:37:03.391Z,7.50
2018-08-14T11:41:11.757Z,5.10
2018-08-14T11:45:23.213Z,5.83
2018-08-14T11:49:31.541Z,6.40
2018-08-14T11:53:39.896Z,7.53
2018-08-14T11:57:48.982Z,3.40
2018-08-14T12:01:57.328Z,7.03
2018-08-14T12:06:05.980Z,4.47
2018-08-14T12:10:15.484Z,6.10
2018-08-14T12:14:23.850Z,6.70
2018-08-14T12:18:32.218Z,5.67
2018-08-14T12:22:40.711Z,4.77
2018-08-14T12:26:49.047Z,5.97
2018-08-14T12:30:57.419Z,4.00
2018-08-14T12:35:06.562Z,3.33
2018-08-14T12:39:14.870Z,4.57
2018-08-14T12:43:23.186Z,5.90
2018-08-14T12:47:31.576Z,5.60
2018-08-14T12:51:39.983Z,7.67
2018-08-14T12:55:48.381Z,12.17
2018-08-14T12:59:56.701Z,3.73
2018-08-14T13:04:05.146Z,4.83
2018-08-14T13:08:13.451Z,7.80
2018-08-14T13:12:21.718Z,6.23
2018-08-14T13:16:30.064Z,5.93
2018-08-14T13:20:38.545Z,6.27
2018-08-14T13:24:46.777Z,6.13
2018-08-14T13:28:55.122Z,7.87
2018-08-14T13:33:03.945Z,5.30
2018-08-14T13:37:12.244Z,5.23
2018-08-14T13:41:20.592Z,7.90
2018-08-14T13:45:28.912Z,6.23
2018-08-14T13:49:37.213Z,4.73
2018-08-14T13:53:45.645Z,8.03
2018-08-14T13:57:57.120Z,9.67
2018-08-14T14:02:05.488Z,4.77
2018-08-14T14:06:13.883Z,6.73
2018-08-14T14:10:22.671Z,5.87
2018-08-14T14:14:31.020Z,6.40
2018-08-14T14:18:39.410Z,5.67
2018-08-14T14:22:47.796Z,6.17
2018-08-14T14:26:56.261Z,8.60
2018-08-14T14:31:04.642Z,4.10
2018-08-14T14:35:13.457Z,10.83
2018-08-14T14:39:21.828Z,10.33
2018-08-14T14:43:30.189Z,3.77
2018-08-14T14:47:38.575Z,3.03
2018-08-14T14:51:46.879Z,3.27
2018-08-14T14:55:55.182Z,4.47
2018-08-14T15:00:03.549Z,6.13
2018-08-14T15:04:12.138Z,3.03
2018-08-14T15:08:20.655Z,3.30
2018-08-14T15:12:29.047Z,5.07
2018-08-14T15:16:37.616Z,3.80
2018-08-14T15:20:46.012Z,4.27
2018-08-14T15:24:54.383Z,3.67
2018-08-14T15:29:23.065Z,3.20
2018-08-14T15:33:31.434Z,5.40
2018-08-14T15:37:41.905Z,3.37
2018-08-14T15:41:50.298Z,4.90
2018-08-14T15:45:58.659Z,9.50
2018-08-14T15:50:07.132Z,3.03
2018-08-14T15:54:15.785Z,4.33
2018-08-14T15:58:24.203Z,5.10
2018-08-14T16:02:32.510Z,7.00
2018-08-14T16:06:40.911Z,5.40
2018-08-14T16:10:49.289Z,6.87
2018-08-14T16:14:57.622Z,5.00
2018-08-14T16:19:06.218Z,7.60
2018-08-14T16:23:15.010Z,4.67
2018-08-14T16:27:23.347Z,6.43
2018-08-14T16:31:31.708Z,4.70
2018-08-14T16:35:40.026Z,7.30
2018-08-14T16:39:48.361Z,12.33
2018-08-14T16:43:56.696Z,6.27
2018-08-14T16:48:05.550Z,5.03
2018-08-14T16:52:13.950Z,4.70
2018-08-14T16:56:22.318Z,6.20
2018-08-14T17:00:37.109Z,4.73
2018-08-14T17:04:45.429Z,5.80
2018-08-14T17:08:53.875Z,5.53
2018-08-14T17:13:02.220Z,7.40
2018-08-14T17:17:10.574Z,9.60
2018-08-14T17:21:17.874Z,6.27
2018-08-14T17:25:26.205Z,8.50
2018-08-14T17:29:34.586Z,6.63
2018-08-14T17:33:42.885Z,15.53
2018-08-14T17:37:52.058Z,8.87
2018-08-14T17:42:00.488Z,7.00
2018-08-14T17:46:08.763Z,7.17
2018-08-14T17:50:17.260Z,10.93
2018-08-14T17:54:25.661Z,6.90
2018-08-14T17:58:33.978Z,8.40
2018-08-14T18:02:42.807Z,7.10
2018-08-14T18:06:51.112Z,7.03
2018-08-14T18:10:59.443Z,7.27
2018-08-14T18:15:09.412Z,7.50
2018-08-14T18:19:17.699Z,6.97
2018-08-14T18:23:26.039Z,8.23
2018-08-14T18:27:34.550Z,7.50
2018-08-14T18:31:42.873Z,10.53
2018-08-14T18:35:51.117Z,7.90
2018-08-14T18:39:59.442Z,7.03
2018-08-14T18:44:07.911Z,13.63
2018-08-14T18:48:16.320Z,8.43
2018-08-14T18:52:24.613Z,6.60
2018-08-14T18:56:32.893Z,6.90
2018-08-14T19:00:41.220Z,6.70
2018-08-14T19:04:49.542Z,8.17
2018-08-14T19:08:57.929Z,7.70
2018-08-14T19:13:06.313Z,8.10
2018-08-14T19:17:14.638Z,9.47
2018-08-14T19:21:24.029Z,9.10
2018-08-14T19:25:32.376Z,9.30
2018-08-14T19:29:45.005Z,5.97
2018-08-14T19:33:53.338Z,11.93
2018-08-14T19:38:01.659Z,6.87
2018-08-14T19:42:10.270Z,7.20
2018-08-14T19:46:18.575Z,7.53
2018-08-14T19:50:26.880Z,7.87
2018-08-14T19:54:35.222Z,7.60
2018-08-14T19:58:43.575Z,9.07
2018-08-14T20:02:52.282Z,10.13
2018-08-14T20:07:00.577Z,10.10
2018-08-14T20:11:08.964Z,12.43
2018-08-14T20:15:22.998Z,7.70
2018-08-14T20:19:33.582Z,9.07
2018-08-14T20:23:41.940Z,6.47
2018-08-14T20:27:50.359Z,11.40
2018-08-14T20:31:58.743Z,8.90
2018-08-14T20:36:07.180Z,6.47
2018-08-14T20:40:17.872Z,7.13
2018-08-14T20:44:26.181Z,11.17
2018-08-14T20:48:34.549Z,8.13
2018-08-14T20:52:43.134Z,14.27
2018-08-14T20:56:51.588Z,9.03
2018-08-14T21:00:59.908Z,10.37
2018-08-14T21:05:08.204Z,8.87
2018-08-14T21:09:16.526Z,9.50
2018-08-14T21:13:24.867Z,8.60
2018-08-14T21:17:33.220Z,7.87
2018-08-14T21:21:41.588Z,8.73
2018-08-14T21:25:51.006Z,8.37
2018-08-14T21:29:59.352Z,8.07
2018-08-14T21:34:07.842Z,9.97
2018-08-14T21:38:16.191Z,9.63
2018-08-14T21:42:24.541Z,10.33
2018-08-14T21:46:32.887Z,7.90
2018-08-14T21:50:41.166Z,8.10
2018-08-14T21:54:49.461Z,9.00
2018-08-14T21:58:57.751Z,8.93
2018-08-14T22:03:06.231Z,8.60
2018-08-14T22:07:14.305Z,6.83
2018-08-14T22:11:22.697Z,7.90
2018-08-14T22:15:31.083Z,7.23
2018-08-14T22:19:39.514Z,6.90
2018-08-14T22:23:47.838Z,8.10
2018-08-14T22:27:56.150Z,7.70
2018-08-14T22:32:04.478Z,7.03
2018-08-14T22:36:12.811Z,9.07
2018-08-14T22:40:21.202Z,7.80
2018-08-14T22:44:29.502Z,7.97
2018-08-14T22:48:37.906Z,5.87
2018-08-14T22:52:46.178Z,6.90
2018-08-14T22:56:54.499Z,8.03
2018-08-14T23:01:02.800Z,8.73
2018-08-14T23:05:11.299Z,8.40
2018-08-14T23:09:19.586Z,9.53
2018-08-14T23:13:27.937Z,7.27
2018-08-14T23:17:36.276Z,7.00
2018-08-14T23:21:44.590Z,7.40
2018-08-14T23:25:52.943Z,6.93
2018-08-14T23:30:01.268Z,9.37
2018-08-14T23:34:09.632Z,8.20
2018-08-14T23:38:17.903Z,7.10
2018-08-14T23:42:26.256Z,6.80
2018-08-14T23:46:34.581Z,6.27
2018-08-14T23:50:42.885Z,7.93
2018-08-14T23:54:51.137Z,7.23
2018-08-14T23:58:59.477Z,8.10
